Time;durP1;ratioP1;P1;durP2;ratioP2;P2;SDS_P1;SDS_P2;PMS_P1;PMS_P2;Temp;Humidity;BMP_temperature;BMP_pressure;BME280_temperature;BME280_humidity;BME280_pressure;Samples;Min_cycle;Max_cycle;Signal;HPM_P1;HPM_P2
2021/06/24 00:01:24;;;;;;;13.18;7.93;;;;;;;28.71;51.29;100712.16;5031575;28;20048;-59
2021/06/24 00:03:49;;;;;;;18.10;8.23;;;;;;;28.69;51.36;100706.16;5032525;28;20041;-59
2021/06/24 00:06:15;;;;;;;12.95;8.50;;;;;;;28.68;51.47;100703.63;5032566;28;20045;-59
2021/06/24 00:08:41;;;;;;;10.02;8.15;;;;;;;28.64;51.46;100711.19;5032485;28;20050;-59
2021/06/24 00:11:13;;;;;;;12.07;8.10;;;;;;;28.63;51.17;100711.38;5024083;28;20062;-59
2021/06/24 00:13:39;;;;;;;12.63;8.05;;;;;;;28.62;51.21;100702.47;5011564;28;20049;-59
2021/06/24 00:16:05;;;;;;;22.70;8.70;;;;;;;28.60;51.23;100714.44;5013136;28;20033;-59
2021/06/24 00:18:31;;;;;;;13.82;8.38;;;;;;;28.54;51.40;100707.91;5011475;28;20499;-58
2021/06/24 00:20:57;;;;;;;13.70;8.27;;;;;;;28.52;51.49;100714.47;5012262;28;20085;-57
2021/06/24 00:23:22;;;;;;;15.13;7.85;;;;;;;28.51;51.56;100710.94;5012621;28;20474;-57
2021/06/24 00:25:48;;;;;;;9.65;7.95;;;;;;;28.47;51.47;100709.63;5012988;28;20042;-58
2021/06/24 00:28:15;;;;;;;15.75;8.35;;;;;;;28.44;51.41;100704.59;5014764;28;20124;-57
2021/06/24 00:30:47;;;;;;;10.70;7.88;;;;;;;28.42;51.33;100709.34;5016115;28;20084;-57
2021/06/24 00:33:14;;;;;;;14.27;8.25;;;;;;;28.40;51.67;100711.38;5016123;28;20104;-58
2021/06/24 00:35:39;;;;;;;8.82;7.65;;;;;;;28.36;51.62;100718.13;5015917;28;20042;-58
2021/06/24 00:38:05;;;;;;;10.02;7.95;;;;;;;28.31;51.49;100723.16;5014800;28;20450;-59
2021/06/24 00:40:36;;;;;;;12.65;7.88;;;;;;;28.25;51.88;100713.13;5015879;28;20038;-59
2021/06/24 00:43:03;;;;;;;14.27;7.65;;;;;;;28.23;51.74;100717.84;5016203;28;20057;-59
2021/06/24 00:45:30;;;;;;;11.75;7.85;;;;;;;28.22;51.71;100721.53;5015720;28;20411;-59
2021/06/24 00:47:56;;;;;;;13.27;7.88;;;;;;;28.17;51.95;100724.78;5014614;28;20042;-60
2021/06/24 00:50:21;;;;;;;16.13;8.55;;;;;;;28.16;52.11;100722.25;5015480;28;20125;-61
2021/06/24 00:52:47;;;;;;;11.25;7.53;;;;;;;28.11;51.82;100719.28;5015655;28;20038;-61
2021/06/24 00:55:16;;;;;;;9.25;7.53;;;;;;;28.10;52.28;100726.50;5015556;28;20511;-59
2021/06/24 00:57:45;;;;;;;12.48;7.75;;;;;;;28.08;51.94;100724.97;5015594;28;20049;-60
2021/06/24 01:00:11;;;;;;;12.18;8.18;;;;;;;28.04;52.57;100720.97;5030430;28;20038;-61
2021/06/24 01:02:38;;;;;;;9.32;7.68;;;;;;;28.07;52.07;100726.00;5015466;28;20038;-61
2021/06/24 01:05:04;;;;;;;10.82;7.70;;;;;;;28.07;52.42;100734.06;5015466;28;20045;-61
2021/06/24 01:07:30;;;;;;;13.05;7.43;;;;;;;28.04;52.42;100723.63;5014028;28;20121;-61
2021/06/24 01:10:16;;;;;;;7.90;7.10;;;;;;;28.02;52.09;100737.22;5015056;28;20091;-60
2021/06/24 01:12:42;;;;;;;19.15;7.97;;;;;;;28.02;52.27;100731.03;5030689;28;20045;-61
2021/06/24 01:15:08;;;;;;;10.60;7.80;;;;;;;27.99;52.43;100734.06;4997716;28;20507;-61
2021/06/24 01:17:34;;;;;;;11.63;7.65;;;;;;;27.96;52.52;100737.94;5015250;28;20049;-61
2021/06/24 01:20:02;;;;;;;13.57;7.70;;;;;;;27.91;52.35;100751.88;5030324;28;20041;-62
2021/06/24 01:22:30;;;;;;;9.13;7.43;;;;;;;27.87;52.73;100739.81;5014066;28;20099;-61
2021/06/24 01:24:56;;;;;;;9.18;7.75;;;;;;;27.90;52.61;100750.22;5015111;28;20045;-61
2021/06/24 01:27:23;;;;;;;15.02;7.25;;;;;;;27.88;52.74;100746.00;5013587;28;20096;-61
2021/06/24 01:29:49;;;;;;;9.25;7.25;;;;;;;27.87;52.72;100750.56;5013484;28;20042;-61
2021/06/24 01:32:15;;;;;;;16.58;7.85;;;;;;;27.90;52.64;100747.53;5014716;28;20042;-61
2021/06/24 01:34:42;;;;;;;14.60;7.80;;;;;;;27.85;52.62;100744.50;5013570;28;20459;-61
2021/06/24 01:37:07;;;;;;;16.88;7.60;;;;;;;27.81;52.98;100737.81;5030187;28;20120;-61
2021/06/24 01:39:34;;;;;;;15.63;7.90;;;;;;;27.80;52.91;100744.22;5013298;28;20411;-61
2021/06/24 01:42:43;;;;;;;13.43;7.80;;;;;;;27.82;52.80;100742.19;5013562;28;20033;-61
2021/06/24 01:45:09;;;;;;;10.93;7.78;;;;;;;27.82;53.11;100744.88;5030385;28;20053;-62
2021/06/24 01:47:35;;;;;;;13.48;6.97;;;;;;;27.79;53.33;100742.53;5013241;28;20415;-62
2021/06/24 01:50:02;;;;;;;12.50;7.90;;;;;;;27.75;53.22;100743.88;5013467;28;20030;-61
2021/06/24 01:52:29;;;;;;;11.68;7.32;;;;;;;27.70;53.15;100743.56;5014545;28;20038;-61
2021/06/24 01:54:55;;;;;;;16.30;7.05;;;;;;;27.73;53.37;100747.75;5014305;28;20419;-61
2021/06/24 01:57:23;;;;;;;17.80;7.80;;;;;;;27.72;53.62;100741.53;5030020;28;20430;-61
2021/06/24 01:59:54;;;;;;;9.57;7.55;;;;;;;27.75;53.71;100743.03;5029818;28;20050;-61
2021/06/24 02:02:21;;;;;;;9.98;7.43;;;;;;;27.76;53.58;100742.88;5029364;28;20049;-61
2021/06/24 02:04:51;;;;;;;11.25;7.70;;;;;;;27.77;53.73;100747.25;5013143;28;20125;-61
2021/06/24 02:07:29;;;;;;;18.55;7.97;;;;;;;27.75;53.93;100743.88;5014404;28;20136;-61
2021/06/24 02:10:13;;;;;;;17.48;8.43;;;;;;;27.71;54.03;100745.25;5014037;28;20050;-61
2021/06/24 02:12:48;;;;;;;16.90;8.10;;;;;;;27.76;53.82;100745.56;5013168;28;20487;-61
2021/06/24 02:15:14;;;;;;;17.05;8.32;;;;;;;27.76;54.16;100748.25;5029481;28;20049;-61
2021/06/24 02:17:48;;;;;;;16.20;8.20;;;;;;;27.80;53.87;100744.22;5012937;28;20100;-61
2021/06/24 02:20:16;;;;;;;14.18;8.38;;;;;;;27.82;53.74;100736.81;5029243;28;20064;-61
2021/06/24 02:23:20;;;;;;;16.65;9.15;;;;;;;27.85;53.71;100741.84;4992107;28;20049;-61
2021/06/24 02:25:54;;;;;;;13.88;8.25;;;;;;;27.85;54.18;100741.84;4992704;28;20073;-60
2021/06/24 02:28:43;;;;;;;16.10;9.07;;;;;;;27.86;54.11;100740.00;5006500;28;20058;-61
2021/06/24 02:31:27;;;;;;;14.38;8.10;;;;;;;27.85;53.75;100741.84;5014269;28;20048;-60
2021/06/24 02:33:53;;;;;;;19.00;7.85;;;;;;;27.86;53.77;100740.84;5013602;28;20041;-60
2021/06/24 02:36:30;;;;;;;18.42;8.40;;;;;;;27.85;53.99;100743.66;4997941;28;20491;-61
2021/06/24 02:38:56;;;;;;;20.58;8.55;;;;;;;27.87;53.64;100747.03;5029538;28;20395;-61
2021/06/24 02:41:21;;;;;;;14.20;8.30;;;;;;;27.91;53.78;100741.13;5012190;28;20042;-61
2021/06/24 02:43:49;;;;;;;24.20;8.10;;;;;;;27.96;53.79;100754.03;5029789;28;20091;-62
2021/06/24 02:46:16;;;;;;;12.88;8.02;;;;;;;27.99;53.49;100742.13;5011754;28;20038;-62
2021/06/24 02:48:47;;;;;;;19.30;8.65;;;;;;;28.00;53.56;100738.44;5028854;28;20046;-61
2021/06/24 02:51:15;;;;;;;22.33;8.77;;;;;;;28.03;53.75;100749.66;5027923;28;20053;-61
2021/06/24 02:53:58;;;;;;;16.15;8.60;;;;;;;28.05;53.63;100741.41;5028760;28;20053;-61
2021/06/24 02:56:24;;;;;;;30.27;8.40;;;;;;;28.07;53.43;100740.28;5012545;28;20098;-61
2021/06/24 02:58:55;;;;;;;26.85;8.80;;;;;;;28.12;53.58;100742.41;5012572;28;20045;-60
2021/06/24 03:01:37;;;;;;;30.45;9.18;;;;;;;28.14;53.82;100735.84;5012139;28;20046;-47
2021/06/24 03:04:10;;;;;;;21.15;8.52;;;;;;;28.20;53.65;100734.34;5012170;28;20091;-46
2021/06/24 03:06:38;;;;;;;20.92;8.27;;;;;;;28.29;53.31;100735.94;5028635;28;20096;-46
2021/06/24 03:09:05;;;;;;;28.05;8.75;;;;;;;28.38;53.02;100733.03;5028333;28;20049;-46
2021/06/24 03:11:32;;;;;;;18.98;7.97;;;;;;;28.44;52.71;100726.94;5013340;28;20495;-46
2021/06/24 03:14:02;;;;;;;18.50;7.63;;;;;;;28.54;53.14;100732.09;5028316;28;20049;-46
2021/06/24 03:16:32;;;;;;;;;;;;;;;28.59;52.84;100734.25;5028941;28;20128;-47
2021/06/24 03:18:59;;;;;;;17.80;8.90;;;;;;;28.63;52.93;100747.13;5014087;28;19921;-47
2021/06/24 03:21:25;;;;;;;12.27;8.77;;;;;;;28.65;53.15;100744.28;5011812;28;20455;-46
2021/06/24 03:23:51;;;;;;;34.40;8.68;;;;;;;28.68;52.58;100743.97;5013200;28;20056;-48
2021/06/24 03:26:18;;;;;;;21.23;9.48;;;;;;;28.71;52.96;100743.59;5013174;28;20133;-57
2021/06/24 03:28:47;;;;;;;16.95;9.02;;;;;;;28.68;53.07;100744.78;5028140;28;20104;-55
2021/06/24 03:31:17;;;;;;;20.40;9.38;;;;;;;28.64;53.67;100731.84;5011949;28;20070;-55
2021/06/24 03:33:43;;;;;;;27.40;10.13;;;;;;;28.60;53.71;100734.06;5012889;28;20057;-54
2021/06/24 03:36:11;;;;;;;17.98;9.55;;;;;;;28.58;53.59;100738.78;5028389;28;20046;-54
2021/06/24 03:38:38;;;;;;;16.63;9.55;;;;;;;28.60;53.54;100739.44;5028324;28;20038;-56
2021/06/24 03:41:06;;;;;;;22.23;9.98;;;;;;;28.60;53.83;100735.94;5027916;28;20045;-56
2021/06/24 03:43:32;;;;;;;20.13;9.57;;;;;;;28.62;53.83;100740.09;5028326;28;20042;-56
2021/06/24 03:45:58;;;;;;;21.30;10.63;;;;;;;28.63;53.95;100730.19;5012692;28;20499;-54
2021/06/24 03:48:29;;;;;;;22.83;10.13;;;;;;;28.65;54.33;100734.38;5011934;28;20092;-53
2021/06/24 03:51:08;;;;;;;23.90;9.80;;;;;;;28.66;53.64;100725.34;5013016;28;20491;-55
2021/06/24 03:53:35;;;;;;;22.48;10.48;;;;;;;28.69;54.23;100726.81;5027945;28;20046;-56
2021/06/24 03:56:01;;;;;;;27.27;10.75;;;;;;;28.70;53.96;100726.63;5011347;28;20499;-56
2021/06/24 03:58:37;;;;;;;24.10;10.52;;;;;;;28.72;53.95;100723.78;5028675;28;20522;-60
2021/06/24 04:01:03;;;;;;;25.48;11.68;;;;;;;28.94;54.93;100722.91;5020528;28;20447;-43
2021/06/24 04:03:29;;;;;;;32.03;12.13;;;;;;;28.96;54.33;100727.06;5066945;28;20056;-45
2021/06/24 04:06:07;;;;;;;31.20;11.30;;;;;;;28.96;54.09;100723.53;5067426;28;20083;-43
2021/06/24 04:08:34;;;;;;;22.60;11.25;;;;;;;29.00;53.87;100721.34;5031750;28;20057;-43
2021/06/24 04:11:00;;;;;;;30.35;12.00;;;;;;;29.02;53.94;100727.38;5024762;28;20493;-43
2021/06/24 04:13:28;;;;;;;26.80;11.98;;;;;;;29.04;53.86;100722.66;5035209;28;20073;-45
2021/06/24 04:15:55;;;;;;;21.23;11.25;;;;;;;29.07;53.89;100722.28;5028141;28;20049;-43
2021/06/24 04:18:21;;;;;;;20.73;11.32;;;;;;;29.10;54.18;100716.53;5033540;28;20116;-43
2021/06/24 04:20:49;;;;;;;25.98;12.40;;;;;;;29.15;54.09;100725.75;5033596;28;20099;-46
2021/06/24 04:23:14;;;;;;;25.30;11.85;;;;;;;29.21;54.19;100721.47;5035024;28;20045;-43
2021/06/24 04:25:54;;;;;;;25.65;11.25;;;;;;;29.25;53.81;100717.44;5033754;28;20578;-46
2021/06/24 04:28:21;;;;;;;26.08;11.77;;;;;;;29.27;53.88;100718.09;5034060;28;20072;-45
2021/06/24 04:31:12;;;;;;;20.75;12.02;;;;;;;29.31;53.80;100717.53;5013817;28;20149;-39
2021/06/24 04:33:38;;;;;;;27.60;11.93;;;;;;;29.34;53.58;100717.19;5015023;28;20045;-41
2021/06/24 04:36:43;;;;;;;26.52;12.65;;;;;;;29.36;54.35;100715.13;5012821;28;20042;-42
2021/06/24 04:39:15;;;;;;;24.00;12.55;;;;;;;29.36;54.60;100717.81;4996523;28;20045;-41
2021/06/24 04:41:41;;;;;;;28.30;13.10;;;;;;;29.40;54.79;100719.13;5013745;28;20061;-42
2021/06/24 04:44:09;;;;;;;22.20;11.35;;;;;;;29.40;54.02;100713.75;5013660;28;20584;-44
2021/06/24 04:46:37;;;;;;;17.30;11.43;;;;;;;29.46;54.19;100714.84;5030809;28;20525;-45
2021/06/24 04:49:06;;;;;;;33.07;12.40;;;;;;;29.47;53.97;100708.44;5033591;28;20156;-44
2021/06/24 04:51:50;;;;;;;28.88;12.50;;;;;;;29.55;53.91;100705.66;5034465;28;20686;-44
2021/06/24 04:54:25;;;;;;;27.05;13.23;;;;;;;29.60;54.03;100708.63;5033549;28;20041;-44
2021/06/24 04:56:51;;;;;;;25.33;13.00;;;;;;;29.63;54.04;100719.03;5033235;28;20039;-42
2021/06/24 04:59:22;;;;;;;28.58;12.60;;;;;;;29.67;54.05;100720.34;5031622;28;20076;-43
2021/06/24 05:02:14;;;;;;;34.47;14.23;;;;;;;29.69;53.74;100722.81;5031412;28;20057;-44
2021/06/24 05:05:01;;;;;;;32.90;12.65;;;;;;;29.72;53.48;100712.53;5036271;28;20054;-61
2021/06/24 05:07:27;;;;;;;34.10;13.43;;;;;;;29.80;53.45;100712.44;5033810;28;20103;-61
2021/06/24 05:09:52;;;;;;;32.00;12.77;;;;;;;29.88;53.28;100723.13;5033661;28;20041;-61
2021/06/24 05:12:18;;;;;;;27.20;12.98;;;;;;;29.95;53.08;100724.03;5033854;28;20530;-61
2021/06/24 05:14:44;;;;;;;26.80;12.45;;;;;;;30.06;52.91;100714.66;5032317;28;20034;-60
2021/06/24 05:17:13;;;;;;;24.42;12.30;;;;;;;30.18;52.28;100723.06;5032257;28;20464;-60
2021/06/24 05:19:39;;;;;;;21.63;11.65;;;;;;;30.28;51.85;100721.75;5026511;28;20045;-54
2021/06/24 05:22:04;;;;;;;29.90;12.65;;;;;;;30.37;51.61;100717.91;5014382;28;20045;-60
2021/06/24 05:24:30;;;;;;;31.05;13.00;;;;;;;30.45;51.39;100714.28;5014417;28;20549;-47
2021/06/24 05:26:55;;;;;;;27.08;13.52;;;;;;;30.40;51.61;100717.53;5018128;28;20034;-48
2021/06/24 05:29:21;;;;;;;27.40;13.10;;;;;;;30.40;51.76;100722.09;5033176;28;20033;-47
2021/06/24 05:31:47;;;;;;;35.28;12.93;;;;;;;30.44;52.04;100720.69;5033692;28;20045;-46
2021/06/24 05:34:12;;;;;;;24.35;11.95;;;;;;;30.50;51.53;100711.03;5027542;28;20196;-48
2021/06/24 05:36:38;;;;;;;26.35;12.40;;;;;;;30.54;51.54;100713.13;5014231;28;20045;-48
2021/06/24 05:39:04;;;;;;;25.02;11.80;;;;;;;30.56;51.74;100713.78;5013894;28;20407;-47
2021/06/24 05:41:30;;;;;;;19.90;11.35;;;;;;;30.56;51.52;100704.84;5027940;28;20034;-42
2021/06/24 05:43:55;;;;;;;26.23;11.75;;;;;;;30.56;51.64;100718.34;5023618;28;20042;-42
2021/06/24 05:46:21;;;;;;;32.45;12.50;;;;;;;30.54;51.76;100702.34;5025854;28;20053;-41
2021/06/24 05:48:51;;;;;;;24.67;12.65;;;;;;;30.54;52.15;100713.13;5033754;28;20073;-42
2021/06/24 05:51:16;;;;;;;25.98;13.35;;;;;;;30.55;52.65;100714.81;5033678;28;20044;-41
2021/06/24 05:53:42;;;;;;;29.42;12.50;;;;;;;30.55;52.70;100698.63;5033567;28;20495;-42
2021/06/24 05:56:08;;;;;;;28.88;13.23;;;;;;;30.56;52.65;100704.84;5033536;28;20044;-42
2021/06/24 05:58:33;;;;;;;21.38;12.20;;;;;;;30.57;52.67;100701.94;5033633;28;20045;-42
2021/06/24 06:00:59;;;;;;;21.42;11.50;;;;;;;30.60;52.32;100701.56;5033440;28;20399;-42
2021/06/24 06:03:25;;;;;;;23.80;11.55;;;;;;;30.60;52.15;100701.56;5027797;28;20048;-42
2021/06/24 06:05:51;;;;;;;25.95;11.73;;;;;;;30.61;52.02;100697.84;5033322;28;20045;-41
2021/06/24 06:08:17;;;;;;;27.05;11.23;;;;;;;30.64;51.90;100697.47;5033099;28;20034;-41
2021/06/24 06:10:42;;;;;;;28.08;11.20;;;;;;;30.65;52.05;100692.91;5033063;28;20057;-41
2021/06/24 06:13:08;;;;;;;19.38;11.15;;;;;;;30.65;51.64;100691.06;5033266;28;20107;-41
2021/06/24 06:15:41;;;;;;;29.00;10.88;;;;;;;30.67;51.54;100690.84;5033128;28;20411;-41
2021/06/24 06:18:10;;;;;;;24.42;10.32;;;;;;;30.66;51.68;100690.00;5032712;28;20073;-40
2021/06/24 06:20:36;;;;;;;15.43;10.38;;;;;;;30.75;51.46;100704.22;5032824;28;20052;-40
2021/06/24 06:23:02;;;;;;;22.30;10.30;;;;;;;30.85;51.05;100702.00;5032877;28;20422;-39
2021/06/24 06:25:27;;;;;;;17.77;9.88;;;;;;;30.91;50.55;100699.38;5032182;28;20104;-41
2021/06/24 06:27:53;;;;;;;23.95;10.45;;;;;;;30.94;50.21;100707.06;5032968;28;20491;-39
2021/06/24 06:30:19;;;;;;;21.63;10.15;;;;;;;30.97;50.27;100700.47;5032747;28;20046;-40
2021/06/24 06:32:45;;;;;;;16.42;9.88;;;;;;;30.96;50.06;100696.94;5032664;28;20096;-40
2021/06/24 06:35:11;;;;;;;18.67;9.60;;;;;;;30.98;49.87;100700.28;5032686;28;20503;-40
2021/06/24 06:37:36;;;;;;;18.60;9.40;;;;;;;31.02;49.72;100694.50;5032736;28;20081;-41
2021/06/24 06:40:03;;;;;;;20.52;9.82;;;;;;;31.05;49.31;100688.72;5023752;28;20128;-40
2021/06/24 06:42:29;;;;;;;17.17;9.73;;;;;;;31.08;49.24;100691.00;5024878;28;20045;-39
2021/06/24 06:44:54;;;;;;;21.88;9.60;;;;;;;31.14;49.25;100691.06;5012965;28;20042;-40
2021/06/24 06:47:20;;;;;;;16.55;9.15;;;;;;;31.22;48.77;100685.50;5031901;28;20042;-39
2021/06/24 06:49:45;;;;;;;29.13;9.40;;;;;;;31.28;48.42;100694.69;5032474;28;20386;-41
2021/06/24 06:52:11;;;;;;;21.10;8.73;;;;;;;31.28;48.27;100689.28;5032633;28;20052;-41
2021/06/24 06:54:37;;;;;;;21.30;8.45;;;;;;;31.23;47.71;100694.44;5032539;28;20044;-41
2021/06/24 06:57:03;;;;;;;18.40;6.95;;;;;;;31.20;46.54;100689.44;5032534;28;20504;-41
2021/06/24 06:59:29;;;;;;;12.55;6.60;;;;;;;31.21;45.86;100686.53;5032444;28;20376;-42
2021/06/24 07:01:55;;;;;;;18.25;6.80;;;;;;;31.20;45.81;100689.44;5032278;28;20037;-41
2021/06/24 07:04:35;;;;;;;17.63;6.05;;;;;;;31.20;45.60;100692.97;5032250;28;20582;-41
2021/06/24 07:07:00;;;;;;;12.32;6.60;;;;;;;31.20;45.43;100686.72;5032471;28;20044;-39
2021/06/24 07:09:26;;;;;;;17.17;6.60;;;;;;;31.18;45.45;100678.00;5032453;28;20045;-39
2021/06/24 07:11:51;;;;;;;22.33;6.80;;;;;;;31.20;45.51;100686.72;5032197;28;20402;-41
2021/06/24 07:14:18;;;;;;;14.10;6.50;;;;;;;31.20;45.54;100687.56;5032371;28;20518;-41
2021/06/24 07:16:44;;;;;;;17.48;6.50;;;;;;;31.22;45.71;100685.50;5032299;28;20056;-41
2021/06/24 07:19:10;;;;;;;11.50;6.22;;;;;;;31.24;45.60;100677.22;5032287;28;20046;-41
2021/06/24 07:21:35;;;;;;;16.52;7.22;;;;;;;31.25;45.64;100674.31;5031541;28;20564;-41
2021/06/24 07:24:01;;;;;;;12.90;6.03;;;;;;;31.27;45.37;100684.91;5032102;28;20041;-41
2021/06/24 07:26:26;;;;;;;14.50;6.88;;;;;;;31.21;46.07;100683.00;5032108;28;20048;-41
2021/06/24 07:28:52;;;;;;;17.42;7.55;;;;;;;31.14;46.07;100687.53;5032120;28;20107;-41
2021/06/24 07:31:18;;;;;;;18.30;7.38;;;;;;;31.11;46.18;100688.75;5032116;28;20048;-41
2021/06/24 07:33:43;;;;;;;15.75;6.28;;;;;;;31.13;45.90;100680.44;5031729;28;20045;-41
2021/06/24 07:36:09;;;;;;;10.80;6.88;;;;;;;31.17;45.87;100677.16;5031965;28;20056;-40
2021/06/24 07:38:37;;;;;;;12.63;6.72;;;;;;;31.18;45.54;100678.00;5035964;28;20041;-40
2021/06/24 07:41:10;;;;;;;16.92;6.68;;;;;;;31.19;45.41;100674.25;5035840;28;20507;-40
2021/06/24 07:43:36;;;;;;;12.45;6.38;;;;;;;31.19;44.65;100675.09;5035635;28;20056;-41
2021/06/24 07:46:01;;;;;;;16.42;6.05;;;;;;;31.19;44.45;100675.09;5035774;28;20045;-43
2021/06/24 07:48:27;;;;;;;26.15;8.27;;;;;;;31.21;44.50;100666.81;5035965;28;20033;-44
2021/06/24 07:50:53;;;;;;;18.77;6.60;;;;;;;31.19;44.09;100669.69;5035939;28;20049;-46
2021/06/24 07:53:18;;;;;;;12.32;6.07;;;;;;;31.17;43.91;100665.53;5035896;28;20041;-44
2021/06/24 07:55:45;;;;;;;9.95;5.47;;;;;;;31.18;43.84;100667.22;5035724;28;20060;-47
2021/06/24 07:58:10;;;;;;;18.42;5.50;;;;;;;31.20;43.55;100671.38;5027803;28;20117;-43
2021/06/24 08:00:36;;;;;;;15.00;5.50;;;;;;;31.25;43.06;100665.41;5018844;28;20045;-42
2021/06/24 08:03:03;;;;;;;11.15;5.20;;;;;;;31.28;43.06;100667.69;5031846;28;20144;-42
2021/06/24 08:05:29;;;;;;;12.18;5.18;;;;;;;31.33;42.81;100665.22;5035346;28;20041;-47
2021/06/24 08:07:54;;;;;;;15.95;5.95;;;;;;;31.32;42.49;100658.97;5035367;28;20099;-42
2021/06/24 08:10:20;;;;;;;11.63;5.78;;;;;;;31.29;42.88;100659.38;5033316;28;20057;-41
2021/06/24 08:12:46;;;;;;;17.42;5.30;;;;;;;31.38;42.09;100657.38;5031951;28;20461;-41
2021/06/24 08:15:13;;;;;;;11.35;5.80;;;;;;;31.39;42.37;100656.31;5032232;28;20076;-40
2021/06/24 08:17:39;;;;;;;19.10;5.13;;;;;;;31.37;42.35;100656.53;5030244;28;20442;-45
2021/06/24 08:20:05;;;;;;;19.88;5.68;;;;;;;31.43;42.44;100652.19;5033411;28;20060;-44
2021/06/24 08:22:31;;;;;;;21.20;5.85;;;;;;;31.40;42.38;100644.50;5035271;28;20045;-46
2021/06/24 08:24:57;;;;;;;13.13;5.20;;;;;;;31.44;42.80;100645.78;5034986;28;20041;-45
2021/06/24 08:27:23;;;;;;;9.43;5.25;;;;;;;31.48;43.39;100650.56;5035257;28;20525;-46
2021/06/24 08:29:49;;;;;;;12.32;5.35;;;;;;;31.55;43.04;100656.03;5034983;28;20041;-45
2021/06/24 08:32:14;;;;;;;16.95;5.90;;;;;;;31.54;42.72;100637.34;5034952;28;20481;-49
2021/06/24 08:34:40;;;;;;;18.05;5.55;;;;;;;31.55;43.09;100647.91;5035155;28;20099;-45
2021/06/24 08:37:06;;;;;;;8.68;5.72;;;;;;;31.62;42.87;100651.50;5035070;28;20491;-47
2021/06/24 08:39:31;;;;;;;10.65;5.65;;;;;;;31.65;42.70;100651.06;5034929;28;20042;-47
2021/06/24 08:41:57;;;;;;;13.07;5.90;;;;;;;31.62;42.91;100646.09;5034963;28;20042;-45
2021/06/24 08:44:23;;;;;;;14.75;6.22;;;;;;;31.64;43.06;100651.31;5035018;28;20503;-45
2021/06/24 08:46:51;;;;;;;14.70;5.55;;;;;;;31.69;42.95;100649.66;5034890;28;20044;-46
2021/06/24 08:49:24;;;;;;;15.45;5.57;;;;;;;31.69;42.93;100649.66;5033888;28;20045;-45
2021/06/24 08:51:53;;;;;;;14.07;5.57;;;;;;;31.69;43.03;100648.81;5033515;28;20045;-45
2021/06/24 08:54:19;;;;;;;11.90;5.63;;;;;;;31.74;43.16;100652.56;5034472;28;20053;-47
2021/06/24 08:56:45;;;;;;;15.88;5.45;;;;;;;31.76;42.68;100650.50;5034516;28;20042;-47
2021/06/24 08:59:11;;;;;;;13.20;5.45;;;;;;;31.80;43.42;100654.47;5034758;28;20555;-47
2021/06/24 09:01:52;;;;;;;17.67;5.70;;;;;;;31.84;43.33;100655.72;5032322;28;20541;-48
2021/06/24 09:04:22;;;;;;;11.27;5.47;;;;;;;31.86;42.77;100658.25;5034740;28;20053;-46
2021/06/24 09:06:49;;;;;;;15.68;5.75;;;;;;;31.87;43.23;100652.63;5034629;28;20038;-45
2021/06/24 09:09:28;;;;;;;21.30;5.55;;;;;;;31.93;42.97;100651.00;5031013;28;20038;-46
2021/06/24 09:12:10;;;;;;;6.93;5.50;;;;;;;31.95;43.16;100652.44;5018478;28;20398;-44
2021/06/24 09:14:53;;;;;;;20.23;5.70;;;;;;;31.91;42.84;100656.59;5019344;28;20045;-44
2021/06/24 09:17:37;;;;;;;9.43;5.75;;;;;;;32.06;42.33;100645.66;5014617;28;20108;-43
2021/06/24 09:20:25;;;;;;;11.40;5.95;;;;;;;32.14;42.12;100650.03;5014370;28;20119;-44
2021/06/24 09:23:09;;;;;;;13.88;5.90;;;;;;;32.01;43.50;100648.94;5026917;28;20041;-42
2021/06/24 09:25:45;;;;;;;13.07;5.53;;;;;;;32.08;43.11;100648.13;5034135;28;20132;-45
2021/06/24 09:28:11;;;;;;;13.43;6.65;;;;;;;32.14;42.83;100647.31;5034244;28;20052;-41
2021/06/24 09:30:38;;;;;;;13.30;5.75;;;;;;;32.01;43.62;100627.31;5034198;28;20037;-41
2021/06/24 09:33:22;;;;;;;10.55;5.40;;;;;;;32.20;43.45;100641.13;5034076;28;20088;-44
2021/06/24 09:35:55;;;;;;;14.00;5.93;;;;;;;32.18;42.86;100640.47;5028256;28;20052;-43
2021/06/24 09:38:21;;;;;;;12.23;5.60;;;;;;;32.22;42.58;100636.31;5019977;28;20072;-42
2021/06/24 09:40:48;;;;;;;7.25;5.30;;;;;;;32.32;42.23;100634.91;5014191;28;20038;-41
2021/06/24 09:43:23;;;;;;;16.48;6.13;;;;;;;32.34;42.05;100638.22;5012226;28;20503;-41
2021/06/24 09:46:08;;;;;;;17.30;5.80;;;;;;;32.35;41.54;100634.47;5012483;28;20050;-41
2021/06/24 09:48:36;;;;;;;11.07;5.88;;;;;;;32.40;41.24;100636.53;5012192;28;20049;-41
2021/06/24 09:51:25;;;;;;;14.23;5.28;;;;;;;32.40;40.90;100633.84;5013565;28;20089;-41
2021/06/24 09:53:50;;;;;;;8.70;5.53;;;;;;;32.47;40.26;100626.56;5024779;28;20100;-41
2021/06/24 09:56:19;;;;;;;12.80;5.60;;;;;;;32.47;40.88;100623.88;5018495;28;20504;-41
2021/06/24 09:58:48;;;;;;;10.57;5.55;;;;;;;32.65;41.42;100618.72;5012591;28;20049;-41
2021/06/24 10:01:45;;;;;;;14.88;5.90;;;;;;;32.64;41.07;100613.50;5011988;28;20077;-41
2021/06/24 10:04:19;;;;;;;21.00;5.93;;;;;;;32.57;41.43;100610.78;5011409;28;20045;-42
2021/06/24 10:06:46;;;;;;;18.38;5.82;;;;;;;32.54;40.74;100622.00;5029572;28;20037;-41
2021/06/24 10:09:12;;;;;;;14.32;5.97;;;;;;;32.57;40.15;100618.91;5031564;28;20037;-41
2021/06/24 10:11:37;;;;;;;15.82;5.60;;;;;;;32.64;39.66;100617.03;5031468;28;20034;-41
2021/06/24 10:14:05;;;;;;;12.43;5.40;;;;;;;32.65;40.34;100628.69;5033196;28;20052;-41
2021/06/24 10:16:31;;;;;;;17.05;5.50;;;;;;;32.64;40.26;100627.84;5033984;28;20041;-41
2021/06/24 10:18:57;;;;;;;16.23;5.78;;;;;;;32.62;39.91;100629.13;5032498;28;20521;-41
2021/06/24 10:21:23;;;;;;;11.98;5.55;;;;;;;32.66;39.90;100620.34;5033325;28;20085;-41
2021/06/24 10:24:10;;;;;;;11.32;5.85;;;;;;;32.77;38.90;100632.44;5034400;28;20053;-41
2021/06/24 10:26:38;;;;;;;19.42;5.57;;;;;;;32.75;38.99;100627.25;5030378;28;20502;-41
2021/06/24 10:29:17;;;;;;;22.00;5.70;;;;;;;32.77;39.38;100627.84;5033720;28;20041;-43
2021/06/24 10:31:52;;;;;;;;;;;;;;;32.78;39.43;100624.13;5034219;28;20040;-41
2021/06/24 10:34:19;;;;;;;13.30;5.43;;;;;;;32.85;38.31;100630.31;5034229;28;20358;-41
2021/06/24 10:37:12;;;;;;;14.75;5.38;;;;;;;32.85;37.61;100627.63;5033607;28;20049;-43
2021/06/24 10:39:39;;;;;;;8.63;5.10;;;;;;;32.80;38.30;100622.00;5031329;28;20052;-44
2021/06/24 10:42:09;;;;;;;12.45;5.28;;;;;;;32.79;38.14;100628.47;5022269;28;20042;-42
2021/06/24 10:44:56;;;;;;;14.48;5.18;;;;;;;32.78;38.12;100621.41;5013669;28;20042;-42
2021/06/24 10:47:41;;;;;;;10.07;4.93;;;;;;;32.80;38.68;100619.31;5013435;28;20521;-43
2021/06/24 10:52:54;;;;;;;10.20;5.43;;;;;;;32.85;39.01;100622.22;5033420;28;20055;-43
2021/06/24 10:55:34;;;;;;;12.65;5.60;;;;;;;32.83;39.56;100616.19;5033492;28;20033;-43
2021/06/24 10:58:00;;;;;;;15.90;5.78;;;;;;;32.87;39.09;100617.44;5029743;28;20103;-43
2021/06/24 11:00:45;;;;;;;11.65;5.90;;;;;;;32.90;39.23;100617.00;5022008;28;20045;-44
2021/06/24 11:03:12;;;;;;;15.60;5.50;;;;;;;32.90;38.31;100613.47;5032683;28;20049;-43
2021/06/24 11:05:38;;;;;;;15.63;5.80;;;;;;;32.92;38.07;100611.38;5033299;28;20041;-43
2021/06/24 11:08:13;;;;;;;13.85;5.75;;;;;;;32.91;38.75;100615.97;5018589;28;20046;-43
2021/06/24 11:11:02;;;;;;;15.93;5.40;;;;;;;32.97;39.04;100611.59;5018780;28;20052;-43
2021/06/24 11:13:43;;;;;;;13.65;5.63;;;;;;;32.96;39.32;100610.75;5015884;28;20096;-43
2021/06/24 11:16:29;;;;;;;9.98;5.32;;;;;;;33.00;38.88;100598.47;5013113;28;20046;-45
2021/06/24 11:19:06;;;;;;;9.93;5.25;;;;;;;33.05;39.45;100607.84;5029695;28;20045;-44
2021/06/24 11:21:32;;;;;;;12.18;5.35;;;;;;;33.02;38.81;100601.78;5012675;28;20060;-44
2021/06/24 11:24:05;;;;;;;8.50;5.20;;;;;;;33.00;38.84;100594.91;5025596;28;20060;-44
2021/06/24 11:26:39;;;;;;;16.10;5.30;;;;;;;33.10;38.79;100597.22;5024643;28;20045;-44
2021/06/24 11:29:11;;;;;;;15.60;5.32;;;;;;;33.05;38.36;100600.50;5013667;28;20638;-44
2021/06/24 11:31:52;;;;;;;14.73;5.35;;;;;;;33.12;39.16;100595.13;5013145;28;20054;-44